sensor_id;sensor_type;location;lat;lon;timestamp;P1;durP1;ratioP1;P2;durP2;ratioP2
54139;SDS011;40046;53.254;5.900;2023-06-14T00:00:33;13.20;;;2.67;;
54139;SDS011;40046;53.254;5.900;2023-06-14T00:03:00;6.65;;;1.90;;
54139;SDS011;40046;53.254;5.900;2023-06-14T00:05:26;4.15;;;1.80;;
54139;SDS011;40046;53.254;5.900;2023-06-14T00:07:54;6.78;;;1.63;;
54139;SDS011;40046;53.254;5.900;2023-06-14T00:10:21;3.78;;;1.65;;
54139;SDS011;40046;53.254;5.900;2023-06-14T00:12:47;7.15;;;2.08;;
54139;SDS011;40046;53.254;5.900;2023-06-14T00:15:13;3.35;;;1.55;;
54139;SDS011;40046;53.254;5.900;2023-06-14T00:17:40;6.80;;;1.77;;
54139;SDS011;40046;53.254;5.900;2023-06-14T00:20:06;4.70;;;2.17;;
54139;SDS011;40046;53.254;5.900;2023-06-14T00:22:33;4.13;;;1.70;;
54139;SDS011;40046;53.254;5.900;2023-06-14T00:25:01;7.00;;;1.90;;
54139;SDS011;40046;53.254;5.900;2023-06-14T00:27:28;10.38;;;1.92;;
54139;SDS011;40046;53.254;5.900;2023-06-14T00:29:54;5.13;;;2.30;;
54139;SDS011;40046;53.254;5.900;2023-06-14T00:32:20;6.28;;;1.60;;
54139;SDS011;40046;53.254;5.900;2023-06-14T00:34:51;5.30;;;1.75;;
54139;SDS011;40046;53.254;5.900;2023-06-14T00:37:17;11.40;;;1.48;;
54139;SDS011;40046;53.254;5.900;2023-06-14T00:39:43;6.10;;;2.15;;
54139;SDS011;40046;53.254;5.900;2023-06-14T00:42:09;4.22;;;1.60;;
54139;SDS011;40046;53.254;5.900;2023-06-14T00:44:36;5.78;;;1.50;;
54139;SDS011;40046;53.254;5.900;2023-06-14T00:47:02;4.70;;;1.65;;
54139;SDS011;40046;53.254;5.900;2023-06-14T00:49:28;5.70;;;1.73;;
54139;SDS011;40046;53.254;5.900;2023-06-14T00:51:55;4.78;;;2.10;;
54139;SDS011;40046;53.254;5.900;2023-06-14T00:54:21;5.93;;;1.85;;
54139;SDS011;40046;53.254;5.900;2023-06-14T00:56:47;5.45;;;2.05;;
54139;SDS011;40046;53.254;5.900;2023-06-14T00:59:13;6.95;;;2.08;;
54139;SDS011;40046;53.254;5.900;2023-06-14T01:01:40;10.88;;;2.42;;
54139;SDS011;40046;53.254;5.900;2023-06-14T01:04:07;3.83;;;1.88;;
54139;SDS011;40046;53.254;5.900;2023-06-14T01:06:41;4.10;;;1.80;;
54139;SDS011;40046;53.254;5.900;2023-06-14T01:09:14;4.75;;;2.20;;
54139;SDS011;40046;53.254;5.900;2023-06-14T01:11:59;5.25;;;1.70;;
54139;SDS011;40046;53.254;5.900;2023-06-14T01:14:26;7.45;;;1.55;;
54139;SDS011;40046;53.254;5.900;2023-06-14T01:16:53;7.57;;;1.88;;
54139;SDS011;40046;53.254;5.900;2023-06-14T01:19:20;8.20;;;2.10;;
54139;SDS011;40046;53.254;5.900;2023-06-14T01:21:48;4.70;;;1.77;;
54139;SDS011;40046;53.254;5.900;2023-06-14T01:24:16;7.10;;;1.58;;
54139;SDS011;40046;53.254;5.900;2023-06-14T01:26:44;6.03;;;1.55;;
54139;SDS011;40046;53.254;5.900;2023-06-14T01:29:12;11.73;;;1.88;;
54139;SDS011;40046;53.254;5.900;2023-06-14T01:31:44;5.68;;;1.58;;
54139;SDS011;40046;53.254;5.900;2023-06-14T01:34:11;4.25;;;1.70;;
54139;SDS011;40046;53.254;5.900;2023-06-14T01:36:37;3.88;;;1.45;;
54139;SDS011;40046;53.254;5.900;2023-06-14T01:39:05;5.68;;;1.67;;
54139;SDS011;40046;53.254;5.900;2023-06-14T01:41:31;5.20;;;1.77;;
54139;SDS011;40046;53.254;5.900;2023-06-14T01:43:58;4.22;;;1.75;;
54139;SDS011;40046;53.254;5.900;2023-06-14T01:46:25;4.07;;;1.65;;
54139;SDS011;40046;53.254;5.900;2023-06-14T01:48:53;8.80;;;2.03;;
54139;SDS011;40046;53.254;5.900;2023-06-14T01:51:19;4.78;;;1.52;;
54139;SDS011;40046;53.254;5.900;2023-06-14T01:53:47;4.72;;;1.73;;
54139;SDS011;40046;53.254;5.900;2023-06-14T01:56:13;8.20;;;1.80;;
54139;SDS011;40046;53.254;5.900;2023-06-14T01:58:40;4.63;;;1.48;;
54139;SDS011;40046;53.254;5.900;2023-06-14T02:01:06;4.70;;;2.13;;
54139;SDS011;40046;53.254;5.900;2023-06-14T02:03:32;6.15;;;2.75;;
54139;SDS011;40046;53.254;5.900;2023-06-14T02:05:59;9.75;;;2.03;;
54139;SDS011;40046;53.254;5.900;2023-06-14T02:08:26;5.00;;;1.95;;
54139;SDS011;40046;53.254;5.900;2023-06-14T02:10:52;6.85;;;1.60;;
54139;SDS011;40046;53.254;5.900;2023-06-14T02:13:20;4.13;;;1.63;;
54139;SDS011;40046;53.254;5.900;2023-06-14T02:15:46;5.25;;;1.90;;
54139;SDS011;40046;53.254;5.900;2023-06-14T02:18:16;9.13;;;2.30;;
54139;SDS011;40046;53.254;5.900;2023-06-14T02:20:42;9.68;;;1.67;;
54139;SDS011;40046;53.254;5.900;2023-06-14T02:23:08;7.32;;;2.50;;
54139;SDS011;40046;53.254;5.900;2023-06-14T02:25:34;4.28;;;1.88;;
54139;SDS011;40046;53.254;5.900;2023-06-14T02:28:01;5.15;;;2.38;;
54139;SDS011;40046;53.254;5.900;2023-06-14T02:30:27;3.55;;;1.55;;
54139;SDS011;40046;53.254;5.900;2023-06-14T02:32:55;4.90;;;1.52;;
54139;SDS011;40046;53.254;5.900;2023-06-14T02:35:22;4.88;;;1.90;;
54139;SDS011;40046;53.254;5.900;2023-06-14T02:37:51;7.75;;;2.13;;
54139;SDS011;40046;53.254;5.900;2023-06-14T02:40:18;3.40;;;1.58;;
54139;SDS011;40046;53.254;5.900;2023-06-14T02:42:44;7.82;;;1.60;;
54139;SDS011;40046;53.254;5.900;2023-06-14T02:45:11;3.28;;;1.52;;
54139;SDS011;40046;53.254;5.900;2023-06-14T02:47:37;4.43;;;1.70;;
54139;SDS011;40046;53.254;5.900;2023-06-14T02:50:04;6.30;;;1.90;;
54139;SDS011;40046;53.254;5.900;2023-06-14T02:52:30;3.25;;;1.83;;
54139;SDS011;40046;53.254;5.900;2023-06-14T02:54:58;4.40;;;2.70;;
54139;SDS011;40046;53.254;5.900;2023-06-14T02:57:25;4.18;;;1.83;;
54139;SDS011;40046;53.254;5.900;2023-06-14T02:59:51;4.82;;;1.90;;
54139;SDS011;40046;53.254;5.900;2023-06-14T03:02:18;6.07;;;1.95;;
54139;SDS011;40046;53.254;5.900;2023-06-14T03:04:45;4.57;;;2.30;;
54139;SDS011;40046;53.254;5.900;2023-06-14T03:07:15;3.35;;;1.90;;
54139;SDS011;40046;53.254;5.900;2023-06-14T03:09:45;8.85;;;1.90;;
54139;SDS011;40046;53.254;5.900;2023-06-14T03:12:12;6.32;;;2.22;;
54139;SDS011;40046;53.254;5.900;2023-06-14T03:14:40;4.32;;;1.98;;
54139;SDS011;40046;53.254;5.900;2023-06-14T03:17:08;8.73;;;2.47;;
54139;SDS011;40046;53.254;5.900;2023-06-14T03:19:38;5.10;;;1.70;;
54139;SDS011;40046;53.254;5.900;2023-06-14T03:22:06;5.68;;;1.80;;
54139;SDS011;40046;53.254;5.900;2023-06-14T03:24:33;5.97;;;2.20;;
54139;SDS011;40046;53.254;5.900;2023-06-14T03:27:06;3.85;;;1.95;;
54139;SDS011;40046;53.254;5.900;2023-06-14T03:29:36;5.28;;;2.10;;
54139;SDS011;40046;53.254;5.900;2023-06-14T03:32:03;5.03;;;2.45;;
54139;SDS011;40046;53.254;5.900;2023-06-14T03:34:49;5.78;;;2.30;;
54139;SDS011;40046;53.254;5.900;2023-06-14T03:37:20;6.82;;;2.30;;
54139;SDS011;40046;53.254;5.900;2023-06-14T03:39:47;6.00;;;2.35;;
54139;SDS011;40046;53.254;5.900;2023-06-14T03:42:18;5.18;;;2.15;;
54139;SDS011;40046;53.254;5.900;2023-06-14T03:44:46;3.72;;;2.13;;
54139;SDS011;40046;53.254;5.900;2023-06-14T03:47:13;5.05;;;1.85;;
54139;SDS011;40046;53.254;5.900;2023-06-14T03:49:40;5.90;;;2.88;;
54139;SDS011;40046;53.254;5.900;2023-06-14T03:52:07;5.20;;;2.13;;
54139;SDS011;40046;53.254;5.900;2023-06-14T03:54:35;9.55;;;2.50;;
54139;SDS011;40046;53.254;5.900;2023-06-14T03:57:02;6.95;;;2.35;;
54139;SDS011;40046;53.254;5.900;2023-06-14T03:59:28;8.52;;;2.72;;
54139;SDS011;40046;53.254;5.900;2023-06-14T04:01:54;6.65;;;2.63;;
54139;SDS011;40046;53.254;5.900;2023-06-14T04:04:21;6.53;;;2.22;;
54139;SDS011;40046;53.254;5.900;2023-06-14T04:06:57;4.22;;;2.80;;
54139;SDS011;40046;53.254;5.900;2023-06-14T04:09:26;4.03;;;2.05;;
54139;SDS011;40046;53.254;5.900;2023-06-14T04:11:52;8.27;;;2.65;;
54139;SDS011;40046;53.254;5.900;2023-06-14T04:14:19;7.63;;;2.95;;
54139;SDS011;40046;53.254;5.900;2023-06-14T04:16:46;6.60;;;2.50;;
54139;SDS011;40046;53.254;5.900;2023-06-14T04:19:13;5.50;;;2.75;;
54139;SDS011;40046;53.254;5.900;2023-06-14T04:21:39;4.53;;;2.45;;
54139;SDS011;40046;53.254;5.900;2023-06-14T04:24:06;7.75;;;2.88;;
54139;SDS011;40046;53.254;5.900;2023-06-14T04:26:32;4.45;;;2.35;;
54139;SDS011;40046;53.254;5.900;2023-06-14T04:28:59;9.80;;;3.33;;
54139;SDS011;40046;53.254;5.900;2023-06-14T04:31:31;7.28;;;3.05;;
54139;SDS011;40046;53.254;5.900;2023-06-14T04:34:04;8.55;;;2.53;;
54139;SDS011;40046;53.254;5.900;2023-06-14T04:36:32;5.90;;;3.30;;
54139;SDS011;40046;53.254;5.900;2023-06-14T04:39:04;6.38;;;2.63;;
54139;SDS011;40046;53.254;5.900;2023-06-14T04:41:31;5.63;;;2.75;;
54139;SDS011;40046;53.254;5.900;2023-06-14T04:43:58;4.35;;;2.63;;
54139;SDS011;40046;53.254;5.900;2023-06-14T04:46:28;7.22;;;3.08;;
54139;SDS011;40046;53.254;5.900;2023-06-14T04:48:55;5.93;;;2.90;;
54139;SDS011;40046;53.254;5.900;2023-06-14T04:51:21;5.50;;;3.00;;
54139;SDS011;40046;53.254;5.900;2023-06-14T04:53:58;5.18;;;3.13;;
54139;SDS011;40046;53.254;5.900;2023-06-14T04:56:26;7.53;;;4.05;;
54139;SDS011;40046;53.254;5.900;2023-06-14T04:58:52;4.15;;;2.47;;
54139;SDS011;40046;53.254;5.900;2023-06-14T05:01:19;5.78;;;2.90;;
54139;SDS011;40046;53.254;5.900;2023-06-14T05:03:46;9.02;;;2.88;;
54139;SDS011;40046;53.254;5.900;2023-06-14T05:06:15;6.88;;;2.60;;
54139;SDS011;40046;53.254;5.900;2023-06-14T05:08:42;5.60;;;2.70;;
54139;SDS011;40046;53.254;5.900;2023-06-14T05:11:09;7.05;;;3.25;;
54139;SDS011;40046;53.254;5.900;2023-06-14T05:14:07;8.77;;;3.60;;
54139;SDS011;40046;53.254;5.900;2023-06-14T05:16:45;7.32;;;2.47;;
54139;SDS011;40046;53.254;5.900;2023-06-14T05:19:20;5.30;;;2.88;;
54139;SDS011;40046;53.254;5.900;2023-06-14T05:21:48;6.97;;;3.30;;
54139;SDS011;40046;53.254;5.900;2023-06-14T05:24:16;4.68;;;2.63;;
54139;SDS011;40046;53.254;5.900;2023-06-14T05:26:43;5.72;;;3.30;;
54139;SDS011;40046;53.254;5.900;2023-06-14T05:29:09;8.02;;;2.90;;
54139;SDS011;40046;53.254;5.900;2023-06-14T05:31:35;5.57;;;2.53;;
54139;SDS011;40046;53.254;5.900;2023-06-14T05:34:01;5.15;;;2.72;;
54139;SDS011;40046;53.254;5.900;2023-06-14T05:36:27;5.65;;;2.85;;
54139;SDS011;40046;53.254;5.900;2023-06-14T05:38:54;8.82;;;3.38;;
54139;SDS011;40046;53.254;5.900;2023-06-14T05:41:24;7.47;;;2.63;;
54139;SDS011;40046;53.254;5.900;2023-06-14T05:43:51;7.55;;;3.03;;
54139;SDS011;40046;53.254;5.900;2023-06-14T05:46:17;9.82;;;2.65;;
54139;SDS011;40046;53.254;5.900;2023-06-14T05:48:49;7.72;;;2.55;;
54139;SDS011;40046;53.254;5.900;2023-06-14T05:51:16;8.15;;;3.10;;
54139;SDS011;40046;53.254;5.900;2023-06-14T05:53:50;5.72;;;3.47;;
54139;SDS011;40046;53.254;5.900;2023-06-14T05:56:17;6.30;;;3.13;;
54139;SDS011;40046;53.254;5.900;2023-06-14T05:58:44;4.63;;;2.63;;
54139;SDS011;40046;53.254;5.900;2023-06-14T06:01:10;7.95;;;3.05;;
54139;SDS011;40046;53.254;5.900;2023-06-14T06:03:36;8.10;;;2.47;;
54139;SDS011;40046;53.254;5.900;2023-06-14T06:06:03;7.70;;;3.10;;
54139;SDS011;40046;53.254;5.900;2023-06-14T06:08:29;4.55;;;2.75;;
54139;SDS011;40046;53.254;5.900;2023-06-14T06:10:56;5.03;;;3.03;;
54139;SDS011;40046;53.254;5.900;2023-06-14T06:13:22;11.32;;;3.53;;
54139;SDS011;40046;53.254;5.900;2023-06-14T06:15:49;4.38;;;2.33;;
54139;SDS011;40046;53.254;5.900;2023-06-14T06:18:15;7.20;;;3.03;;
54139;SDS011;40046;53.254;5.900;2023-06-14T06:20:42;7.88;;;3.13;;
54139;SDS011;40046;53.254;5.900;2023-06-14T06:23:09;7.03;;;3.30;;
54139;SDS011;40046;53.254;5.900;2023-06-14T06:25:35;5.88;;;2.55;;
54139;SDS011;40046;53.254;5.900;2023-06-14T06:28:02;8.15;;;3.55;;
54139;SDS011;40046;53.254;5.900;2023-06-14T06:30:28;7.43;;;2.58;;
54139;SDS011;40046;53.254;5.900;2023-06-14T06:32:54;4.60;;;2.72;;
54139;SDS011;40046;53.254;5.900;2023-06-14T06:35:21;5.97;;;3.00;;
54139;SDS011;40046;53.254;5.900;2023-06-14T06:37:47;4.30;;;3.00;;
54139;SDS011;40046;53.254;5.900;2023-06-14T06:40:13;6.70;;;2.72;;
54139;SDS011;40046;53.254;5.900;2023-06-14T06:42:40;6.50;;;3.38;;
54139;SDS011;40046;53.254;5.900;2023-06-14T06:45:10;4.93;;;2.50;;
54139;SDS011;40046;53.254;5.900;2023-06-14T06:47:36;8.82;;;3.03;;
54139;SDS011;40046;53.254;5.900;2023-06-14T06:50:02;8.88;;;2.70;;
54139;SDS011;40046;53.254;5.900;2023-06-14T06:52:28;12.90;;;3.90;;
54139;SDS011;40046;53.254;5.900;2023-06-14T06:54:55;6.50;;;2.15;;
54139;SDS011;40046;53.254;5.900;2023-06-14T06:57:22;7.38;;;2.83;;
54139;SDS011;40046;53.254;5.900;2023-06-14T06:59:48;4.68;;;2.60;;
54139;SDS011;40046;53.254;5.900;2023-06-14T07:02:15;5.90;;;2.20;;
54139;SDS011;40046;53.254;5.900;2023-06-14T07:04:41;7.43;;;3.08;;
54139;SDS011;40046;53.254;5.900;2023-06-14T07:07:08;5.47;;;2.72;;
54139;SDS011;40046;53.254;5.900;2023-06-14T07:09:35;9.27;;;2.80;;
54139;SDS011;40046;53.254;5.900;2023-06-14T07:12:01;7.15;;;1.95;;
54139;SDS011;40046;53.254;5.900;2023-06-14T07:14:27;4.72;;;2.35;;
54139;SDS011;40046;53.254;5.900;2023-06-14T07:16:55;4.80;;;2.28;;
54139;SDS011;40046;53.254;5.900;2023-06-14T07:19:21;3.72;;;2.05;;
54139;SDS011;40046;53.254;5.900;2023-06-14T07:21:47;4.60;;;2.80;;
54139;SDS011;40046;53.254;5.900;2023-06-14T07:24:13;7.55;;;2.58;;
54139;SDS011;40046;53.254;5.900;2023-06-14T07:26:40;5.40;;;2.00;;
54139;SDS011;40046;53.254;5.900;2023-06-14T07:29:06;3.50;;;1.98;;
54139;SDS011;40046;53.254;5.900;2023-06-14T07:31:32;5.03;;;2.50;;
54139;SDS011;40046;53.254;5.900;2023-06-14T07:33:58;6.32;;;2.28;;
54139;SDS011;40046;53.254;5.900;2023-06-14T07:36:25;5.45;;;2.05;;
54139;SDS011;40046;53.254;5.900;2023-06-14T07:38:51;4.40;;;2.17;;
54139;SDS011;40046;53.254;5.900;2023-06-14T07:41:17;6.50;;;1.92;;
54139;SDS011;40046;53.254;5.900;2023-06-14T07:43:43;8.25;;;2.20;;
54139;SDS011;40046;53.254;5.900;2023-06-14T07:46:10;6.07;;;2.33;;
54139;SDS011;40046;53.254;5.900;2023-06-14T07:48:36;5.80;;;2.03;;
54139;SDS011;40046;53.254;5.900;2023-06-14T07:51:02;3.53;;;2.00;;
54139;SDS011;40046;53.254;5.900;2023-06-14T07:53:29;6.80;;;2.05;;
54139;SDS011;40046;53.254;5.900;2023-06-14T07:55:56;13.60;;;2.65;;
54139;SDS011;40046;53.254;5.900;2023-06-14T07:58:22;4.28;;;2.25;;
54139;SDS011;40046;53.254;5.900;2023-06-14T08:00:48;6.63;;;2.42;;
54139;SDS011;40046;53.254;5.900;2023-06-14T08:03:15;4.00;;;2.03;;
54139;SDS011;40046;53.254;5.900;2023-06-14T08:05:41;3.65;;;2.03;;
54139;SDS011;40046;53.254;5.900;2023-06-14T08:08:07;7.63;;;2.22;;
54139;SDS011;40046;53.254;5.900;2023-06-14T08:10:33;4.97;;;2.20;;
54139;SDS011;40046;53.254;5.900;2023-06-14T08:12:59;3.25;;;1.85;;
54139;SDS011;40046;53.254;5.900;2023-06-14T08:15:25;9.50;;;1.98;;
54139;SDS011;40046;53.254;5.900;2023-06-14T08:17:51;7.18;;;2.10;;
54139;SDS011;40046;53.254;5.900;2023-06-14T08:20:18;4.80;;;2.30;;
54139;SDS011;40046;53.254;5.900;2023-06-14T08:22:44;3.70;;;2.22;;
54139;SDS011;40046;53.254;5.900;2023-06-14T08:25:11;5.47;;;2.10;;
54139;SDS011;40046;53.254;5.900;2023-06-14T08:27:38;4.60;;;1.83;;
54139;SDS011;40046;53.254;5.900;2023-06-14T08:30:05;4.22;;;2.20;;
54139;SDS011;40046;53.254;5.900;2023-06-14T08:32:33;4.57;;;2.20;;
54139;SDS011;40046;53.254;5.900;2023-06-14T08:34:59;6.25;;;2.28;;
54139;SDS011;40046;53.254;5.900;2023-06-14T08:37:25;7.13;;;2.17;;
54139;SDS011;40046;53.254;5.900;2023-06-14T08:39:52;5.53;;;1.92;;
54139;SDS011;40046;53.254;5.900;2023-06-14T08:42:18;5.72;;;1.88;;
54139;SDS011;40046;53.254;5.900;2023-06-14T08:44:45;4.60;;;2.05;;
54139;SDS011;40046;53.254;5.900;2023-06-14T08:47:11;5.53;;;1.80;;
54139;SDS011;40046;53.254;5.900;2023-06-14T08:49:38;4.80;;;2.13;;
54139;SDS011;40046;53.254;5.900;2023-06-14T08:52:05;3.58;;;2.17;;
54139;SDS011;40046;53.254;5.900;2023-06-14T08:54:35;6.28;;;2.15;;
54139;SDS011;40046;53.254;5.900;2023-06-14T08:57:09;8.65;;;2.20;;
54139;SDS011;40046;53.254;5.900;2023-06-14T08:59:38;6.28;;;2.13;;
54139;SDS011;40046;53.254;5.900;2023-06-14T09:02:10;7.90;;;2.35;;
54139;SDS011;40046;53.254;5.900;2023-06-14T09:04:38;4.20;;;2.45;;
54139;SDS011;40046;53.254;5.900;2023-06-14T09:07:05;6.78;;;2.17;;
54139;SDS011;40046;53.254;5.900;2023-06-14T09:09:31;4.80;;;2.30;;
54139;SDS011;40046;53.254;5.900;2023-06-14T09:11:59;4.53;;;2.05;;
54139;SDS011;40046;53.254;5.900;2023-06-14T09:14:25;12.05;;;3.03;;
54139;SDS011;40046;53.254;5.900;2023-06-14T09:16:52;4.00;;;1.85;;
54139;SDS011;40046;53.254;5.900;2023-06-14T09:19:23;7.57;;;2.28;;
54139;SDS011;40046;53.254;5.900;2023-06-14T09:21:49;7.05;;;1.80;;
54139;SDS011;40046;53.254;5.900;2023-06-14T09:24:17;6.40;;;2.50;;
54139;SDS011;40046;53.254;5.900;2023-06-14T09:26:43;6.13;;;1.70;;
54139;SDS011;40046;53.254;5.900;2023-06-14T09:29:09;3.50;;;1.80;;
54139;SDS011;40046;53.254;5.900;2023-06-14T09:31:35;5.28;;;2.40;;
54139;SDS011;40046;53.254;5.900;2023-06-14T09:34:02;6.63;;;2.88;;
54139;SDS011;40046;53.254;5.900;2023-06-14T09:36:30;3.80;;;1.90;;
54139;SDS011;40046;53.254;5.900;2023-06-14T09:44:02;5.32;;;2.17;;
54139;SDS011;40046;53.254;5.900;2023-06-14T09:46:29;3.50;;;2.25;;
54139;SDS011;40046;53.254;5.900;2023-06-14T09:48:56;5.05;;;1.73;;
54139;SDS011;40046;53.254;5.900;2023-06-14T09:51:23;7.47;;;2.38;;
54139;SDS011;40046;53.254;5.900;2023-06-14T09:53:49;4.93;;;2.00;;
54139;SDS011;40046;53.254;5.900;2023-06-14T09:56:23;4.85;;;1.83;;
54139;SDS011;40046;53.254;5.900;2023-06-14T09:58:54;6.10;;;2.03;;
54139;SDS011;40046;53.254;5.900;2023-06-14T10:01:20;4.63;;;1.67;;
54139;SDS011;40046;53.254;5.900;2023-06-14T10:03:47;5.43;;;1.98;;
54139;SDS011;40046;53.254;5.900;2023-06-14T10:06:15;4.70;;;1.60;;
54139;SDS011;40046;53.254;5.900;2023-06-14T10:08:42;5.32;;;1.90;;
54139;SDS011;40046;53.254;5.900;2023-06-14T10:11:11;2.85;;;1.60;;
54139;SDS011;40046;53.254;5.900;2023-06-14T10:13:38;3.83;;;1.90;;
54139;SDS011;40046;53.254;5.900;2023-06-14T10:16:23;6.30;;;2.03;;
54139;SDS011;40046;53.254;5.900;2023-06-14T10:21:32;5.93;;;1.95;;
54139;SDS011;40046;53.254;5.900;2023-06-14T10:23:59;4.53;;;2.00;;
54139;SDS011;40046;53.254;5.900;2023-06-14T10:26:27;3.17;;;1.58;;
54139;SDS011;40046;53.254;5.900;2023-06-14T10:29:00;4.53;;;1.55;;
54139;SDS011;40046;53.254;5.900;2023-06-14T10:31:39;5.00;;;1.80;;
54139;SDS011;40046;53.254;5.900;2023-06-14T10:34:06;8.98;;;2.10;;
54139;SDS011;40046;53.254;5.900;2023-06-14T10:36:33;5.47;;;2.05;;
54139;SDS011;40046;53.254;5.900;2023-06-14T10:39:07;4.07;;;1.88;;
54139;SDS011;40046;53.254;5.900;2023-06-14T10:41:40;9.25;;;2.50;;
54139;SDS011;40046;53.254;5.900;2023-06-14T10:47:00;4.00;;;1.73;;
54139;SDS011;40046;53.254;5.900;2023-06-14T10:49:42;4.43;;;1.70;;
54139;SDS011;40046;53.254;5.900;2023-06-14T10:52:09;5.40;;;1.93;;
54139;SDS011;40046;53.254;5.900;2023-06-14T10:57:30;5.13;;;1.77;;
54139;SDS011;40046;53.254;5.900;2023-06-14T10:59:59;4.72;;;2.40;;
54139;SDS011;40046;53.254;5.900;2023-06-14T11:04:59;5.68;;;2.30;;
54139;SDS011;40046;53.254;5.900;2023-06-14T11:10:34;3.90;;;2.03;;
54139;SDS011;40046;53.254;5.900;2023-06-14T11:13:02;8.85;;;1.88;;
54139;SDS011;40046;53.254;5.900;2023-06-14T11:15:31;5.03;;;2.10;;
54139;SDS011;40046;53.254;5.900;2023-06-14T11:18:07;8.25;;;1.98;;
54139;SDS011;40046;53.254;5.900;2023-06-14T11:20:37;4.18;;;1.73;;
54139;SDS011;40046;53.254;5.900;2023-06-14T11:23:03;5.53;;;1.95;;
54139;SDS011;40046;53.254;5.900;2023-06-14T11:25:30;3.53;;;1.90;;
54139;SDS011;40046;53.254;5.900;2023-06-14T11:27:57;6.43;;;2.53;;
54139;SDS011;40046;53.254;5.900;2023-06-14T11:30:24;4.50;;;2.20;;
54139;SDS011;40046;53.254;5.900;2023-06-14T11:32:55;4.13;;;1.60;;
54139;SDS011;40046;53.254;5.900;2023-06-14T11:35:22;7.35;;;2.75;;
54139;SDS011;40046;53.254;5.900;2023-06-14T11:37:49;3.53;;;2.22;;
54139;SDS011;40046;53.254;5.900;2023-06-14T11:40:18;4.32;;;2.25;;
54139;SDS011;40046;53.254;5.900;2023-06-14T11:42:44;4.15;;;2.30;;
54139;SDS011;40046;53.254;5.900;2023-06-14T11:45:11;5.07;;;1.85;;
54139;SDS011;40046;53.254;5.900;2023-06-14T11:47:38;10.88;;;2.55;;
54139;SDS011;40046;53.254;5.900;2023-06-14T11:50:05;4.80;;;1.67;;
54139;SDS011;40046;53.254;5.900;2023-06-14T11:52:32;5.85;;;2.08;;
54139;SDS011;40046;53.254;5.900;2023-06-14T11:54:58;4.78;;;2.22;;
54139;SDS011;40046;53.254;5.900;2023-06-14T11:57:24;6.40;;;1.92;;
54139;SDS011;40046;53.254;5.900;2023-06-14T11:59:51;6.50;;;2.33;;
54139;SDS011;40046;53.254;5.900;2023-06-14T12:02:18;5.75;;;2.13;;
54139;SDS011;40046;53.254;5.900;2023-06-14T12:04:46;5.07;;;1.70;;
54139;SDS011;40046;53.254;5.900;2023-06-14T12:07:14;5.82;;;2.05;;
54139;SDS011;40046;53.254;5.900;2023-06-14T12:09:41;3.50;;;1.80;;
54139;SDS011;40046;53.254;5.900;2023-06-14T12:12:11;4.90;;;2.05;;
54139;SDS011;40046;53.254;5.900;2023-06-14T12:14:39;7.15;;;2.15;;
54139;SDS011;40046;53.254;5.900;2023-06-14T12:17:07;3.30;;;1.65;;
54139;SDS011;40046;53.254;5.900;2023-06-14T12:19:41;5.18;;;2.25;;
54139;SDS011;40046;53.254;5.900;2023-06-14T12:22:09;5.63;;;2.08;;
54139;SDS011;40046;53.254;5.900;2023-06-14T12:24:35;11.57;;;2.92;;
54139;SDS011;40046;53.254;5.900;2023-06-14T12:27:01;4.20;;;2.92;;
54139;SDS011;40046;53.254;5.900;2023-06-14T12:29:31;5.68;;;2.60;;
54139;SDS011;40046;53.254;5.900;2023-06-14T12:31:57;7.63;;;2.65;;
54139;SDS011;40046;53.254;5.900;2023-06-14T12:34:24;5.05;;;3.00;;
54139;SDS011;40046;53.254;5.900;2023-06-14T12:36:51;8.90;;;3.20;;
54139;SDS011;40046;53.254;5.900;2023-06-14T12:39:18;9.68;;;3.25;;
54139;SDS011;40046;53.254;5.900;2023-06-14T12:41:44;7.50;;;3.58;;
54139;SDS011;40046;53.254;5.900;2023-06-14T12:44:11;9.45;;;3.10;;
54139;SDS011;40046;53.254;5.900;2023-06-14T12:46:37;7.55;;;3.42;;
54139;SDS011;40046;53.254;5.900;2023-06-14T12:49:07;9.10;;;3.42;;
54139;SDS011;40046;53.254;5.900;2023-06-14T12:51:34;7.93;;;3.60;;
54139;SDS011;40046;53.254;5.900;2023-06-14T12:54:00;6.28;;;2.83;;
54139;SDS011;40046;53.254;5.900;2023-06-14T12:56:26;10.70;;;3.10;;
54139;SDS011;40046;53.254;5.900;2023-06-14T12:58:52;6.18;;;3.33;;
54139;SDS011;40046;53.254;5.900;2023-06-14T13:01:19;7.75;;;3.55;;
54139;SDS011;40046;53.254;5.900;2023-06-14T13:03:48;10.82;;;3.00;;
54139;SDS011;40046;53.254;5.900;2023-06-14T13:06:15;9.57;;;3.15;;
54139;SDS011;40046;53.254;5.900;2023-06-14T13:08:41;5.47;;;2.70;;
54139;SDS011;40046;53.254;5.900;2023-06-14T13:11:08;8.85;;;2.90;;
54139;SDS011;40046;53.254;5.900;2023-06-14T13:13:34;10.57;;;3.08;;
54139;SDS011;40046;53.254;5.900;2023-06-14T13:16:00;10.15;;;3.33;;
54139;SDS011;40046;53.254;5.900;2023-06-14T13:18:26;7.25;;;2.72;;
54139;SDS011;40046;53.254;5.900;2023-06-14T13:20:53;7.57;;;2.65;;
54139;SDS011;40046;53.254;5.900;2023-06-14T13:23:19;6.07;;;2.97;;
54139;SDS011;40046;53.254;5.900;2023-06-14T13:25:45;5.45;;;2.95;;
54139;SDS011;40046;53.254;5.900;2023-06-14T13:28:11;10.68;;;3.45;;
54139;SDS011;40046;53.254;5.900;2023-06-14T13:30:37;10.80;;;2.95;;
54139;SDS011;40046;53.254;5.900;2023-06-14T13:33:04;7.82;;;2.72;;
54139;SDS011;40046;53.254;5.900;2023-06-14T13:35:30;7.65;;;3.30;;
54139;SDS011;40046;53.254;5.900;2023-06-14T13:37:56;4.63;;;2.65;;
54139;SDS011;40046;53.254;5.900;2023-06-14T13:40:22;6.88;;;2.88;;
54139;SDS011;40046;53.254;5.900;2023-06-14T13:42:48;9.77;;;3.20;;
54139;SDS011;40046;53.254;5.900;2023-06-14T13:45:15;10.60;;;3.10;;
54139;SDS011;40046;53.254;5.900;2023-06-14T13:47:41;9.27;;;3.03;;
54139;SDS011;40046;53.254;5.900;2023-06-14T13:50:07;11.35;;;3.28;;
54139;SDS011;40046;53.254;5.900;2023-06-14T13:52:33;11.70;;;2.88;;
54139;SDS011;40046;53.254;5.900;2023-06-14T13:55:00;9.98;;;2.88;;
54139;SDS011;40046;53.254;5.900;2023-06-14T13:57:32;9.32;;;2.70;;
54139;SDS011;40046;53.254;5.900;2023-06-14T13:59:59;7.60;;;3.22;;
54139;SDS011;40046;53.254;5.900;2023-06-14T14:02:27;4.65;;;2.40;;
54139;SDS011;40046;53.254;5.900;2023-06-14T14:04:54;10.50;;;2.70;;
54139;SDS011;40046;53.254;5.900;2023-06-14T14:07:20;8.38;;;2.72;;
54139;SDS011;40046;53.254;5.900;2023-06-14T14:09:47;6.93;;;2.95;;
54139;SDS011;40046;53.254;5.900;2023-06-14T14:12:13;11.68;;;3.67;;
54139;SDS011;40046;53.254;5.900;2023-06-14T14:14:40;8.93;;;2.95;;
54139;SDS011;40046;53.254;5.900;2023-06-14T14:17:06;7.97;;;2.92;;
54139;SDS011;40046;53.254;5.900;2023-06-14T14:19:32;7.93;;;2.53;;
54139;SDS011;40046;53.254;5.900;2023-06-14T14:21:59;7.88;;;2.88;;
54139;SDS011;40046;53.254;5.900;2023-06-14T14:24:26;7.95;;;3.38;;
54139;SDS011;40046;53.254;5.900;2023-06-14T14:26:52;14.18;;;2.95;;
54139;SDS011;40046;53.254;5.900;2023-06-14T14:29:19;9.98;;;3.42;;
54139;SDS011;40046;53.254;5.900;2023-06-14T14:31:45;8.60;;;2.92;;
54139;SDS011;40046;53.254;5.900;2023-06-14T14:34:11;10.90;;;3.10;;
54139;SDS011;40046;53.254;5.900;2023-06-14T14:36:38;8.57;;;3.05;;
54139;SDS011;40046;53.254;5.900;2023-06-14T14:39:07;9.27;;;3.30;;
54139;SDS011;40046;53.254;5.900;2023-06-14T14:41:34;7.72;;;3.10;;
54139;SDS011;40046;53.254;5.900;2023-06-14T14:44:00;6.85;;;3.40;;
54139;SDS011;40046;53.254;5.900;2023-06-14T14:46:27;7.30;;;3.10;;
54139;SDS011;40046;53.254;5.900;2023-06-14T14:48:53;13.10;;;3.03;;
54139;SDS011;40046;53.254;5.900;2023-06-14T14:51:20;14.70;;;3.47;;
54139;SDS011;40046;53.254;5.900;2023-06-14T14:53:46;6.35;;;2.80;;
54139;SDS011;40046;53.254;5.900;2023-06-14T14:56:12;6.05;;;2.50;;
54139;SDS011;40046;53.254;5.900;2023-06-14T14:58:38;6.85;;;2.90;;
54139;SDS011;40046;53.254;5.900;2023-06-14T15:01:04;13.63;;;3.15;;
54139;SDS011;40046;53.254;5.900;2023-06-14T15:03:31;8.40;;;2.80;;
54139;SDS011;40046;53.254;5.900;2023-06-14T15:05:57;10.40;;;3.90;;